Time;durP1;ratioP1;P1;durP2;ratioP2;P2;SDS_P1;SDS_P2;PMS_P1;PMS_P2;Temp;Humidity;BMP_temperature;BMP_pressure;BME280_temperature;BME280_humidity;BME280_pressure;Samples;Min_cycle;Max_cycle;Signal;HPM_P1;HPM_P2
2021/12/23 00:00:31;;;;;;;89.30;33.10;;;-6.00;99.90;;;;;;5132702;27;20375;-69
2021/12/23 00:02:57;;;;;;;92.47;36.05;;;-6.00;99.90;;;;;;5133205;27;20031;-69
2021/12/23 00:05:23;;;;;;;85.13;32.60;;;-6.00;99.90;;;;;;5132809;27;20084;-68
2021/12/23 00:07:48;;;;;;;83.82;33.20;;;-6.00;99.90;;;;;;5133332;27;20047;-70
2021/12/23 00:10:14;;;;;;;89.13;33.65;;;-6.00;99.90;;;;;;5133204;27;20023;-69
2021/12/23 00:12:43;;;;;;;83.90;31.75;;;-6.00;99.90;;;;;;5132282;27;20508;-68
2021/12/23 00:15:30;;;;;;;82.43;31.92;;;-6.00;99.90;;;;;;5133190;27;20026;-69
2021/12/23 00:18:04;;;;;;;89.80;33.97;;;-6.00;99.90;;;;;;5130541;27;20035;-69
2021/12/23 00:23:25;;;;;;;88.72;32.90;;;-5.90;99.90;;;;;;5130906;27;20403;-69
2021/12/23 00:25:57;;;;;;;91.32;35.75;;;-5.90;99.90;;;;;;5132550;27;20042;-69
2021/12/23 00:28:23;;;;;;;86.35;32.45;;;-5.90;99.90;;;;;;5132179;27;20027;-69
2021/12/23 00:30:48;;;;;;;93.22;35.30;;;-5.90;99.90;;;;;;5132443;27;20034;-69
2021/12/23 00:33:14;;;;;;;98.43;34.95;;;-6.00;99.90;;;;;;5132338;27;20485;-68
2021/12/23 00:35:40;;;;;;;95.35;36.40;;;-5.90;99.90;;;;;;5131973;27;20035;-68
2021/12/23 00:38:14;;;;;;;83.38;33.85;;;-5.90;99.90;;;;;;5133349;27;20062;-69
2021/12/23 00:40:40;;;;;;;87.47;34.10;;;-6.00;99.90;;;;;;5133595;27;20026;-69
2021/12/23 00:43:06;;;;;;;84.50;32.58;;;-6.00;99.90;;;;;;5134093;27;20027;-69
2021/12/23 00:45:31;;;;;;;82.32;33.47;;;-6.10;99.90;;;;;;5133434;27;20035;-68
2021/12/23 00:47:57;;;;;;;90.78;34.13;;;-6.10;99.90;;;;;;5129745;27;20097;-68
2021/12/23 00:50:23;;;;;;;106.72;36.97;;;-6.10;99.90;;;;;;5133607;27;20057;-69
2021/12/23 00:52:55;;;;;;;97.13;35.90;;;-6.10;99.90;;;;;;5133872;27;20115;-68
2021/12/23 00:55:22;;;;;;;100.63;35.38;;;-6.00;99.90;;;;;;5133495;27;20030;-69
2021/12/23 00:57:48;;;;;;;95.68;37.08;;;-6.00;99.90;;;;;;5133617;27;20054;-70
2021/12/23 01:00:18;;;;;;;106.60;38.38;;;-5.90;99.90;;;;;;5134624;27;20437;-70
2021/12/23 01:02:45;;;;;;;100.82;35.80;;;-5.90;99.90;;;;;;5134608;27;20027;-69
2021/12/23 01:05:13;;;;;;;105.85;37.63;;;-5.90;99.90;;;;;;5133765;27;20478;-69
2021/12/23 01:07:39;;;;;;;93.25;36.05;;;-5.80;99.90;;;;;;5133324;27;20019;-69
2021/12/23 01:10:06;;;;;;;93.55;33.95;;;-5.70;99.90;;;;;;5134235;27;20034;-69
2021/12/23 01:12:39;;;;;;;97.85;36.42;;;-5.70;99.90;;;;;;5132788;27;20114;-69
2021/12/23 01:17:56;;;;;;;93.68;35.83;;;-5.70;99.90;;;;;;5112198;28;20471;-69
2021/12/23 01:20:32;;;;;;;95.43;34.60;;;-5.70;99.90;;;;;;5112289;28;20456;-70
2021/12/23 01:23:03;;;;;;;89.45;34.08;;;-5.60;99.90;;;;;;5132790;27;20460;-69
2021/12/23 01:25:30;;;;;;;90.53;33.55;;;-5.60;99.90;;;;;;5132813;27;20148;-69
2021/12/23 01:27:57;;;;;;;81.88;32.78;;;-5.60;99.90;;;;;;5133725;27;20031;-69
2021/12/23 01:30:23;;;;;;;90.93;35.13;;;-5.60;99.90;;;;;;5132637;27;20098;-73
2021/12/23 01:32:50;;;;;;;94.45;34.33;;;-5.70;99.90;;;;;;5112939;28;20053;-69
2021/12/23 01:35:17;;;;;;;91.07;34.72;;;-5.70;99.90;;;;;;5113004;28;20392;-69
2021/12/23 01:37:44;;;;;;;84.93;32.45;;;-5.70;99.90;;;;;;5132337;27;20031;-69
2021/12/23 01:40:12;;;;;;;89.78;34.33;;;-5.50;99.90;;;;;;5133418;27;20042;-69
2021/12/23 01:42:38;;;;;;;85.93;32.97;;;-5.40;99.90;;;;;;5132257;27;20019;-69
2021/12/23 01:45:16;;;;;;;85.20;32.53;;;-5.40;99.90;;;;;;5133612;27;20026;-70
2021/12/23 01:47:42;;;;;;;79.93;30.80;;;-5.30;99.90;;;;;;5132206;27;20122;-69
2021/12/23 01:50:11;;;;;;;78.75;32.40;;;-5.30;99.90;;;;;;5133037;27;20062;-69
2021/12/23 01:52:38;;;;;;;76.78;31.92;;;-5.10;99.90;;;;;;5130866;27;20091;-69
2021/12/23 01:55:05;;;;;;;77.20;30.95;;;-5.10;99.90;;;;;;5132493;27;20059;-69
2021/12/23 01:57:32;;;;;;;72.88;31.45;;;-5.10;99.90;;;;;;5131725;27;20463;-69
2021/12/23 02:00:00;;;;;;;75.68;30.10;;;-5.10;99.90;;;;;;5133134;27;20082;-69
2021/12/23 02:02:27;;;;;;;71.32;29.55;;;-4.90;99.90;;;;;;5131918;27;20101;-69
2021/12/23 02:04:53;;;;;;;66.25;27.85;;;-4.80;99.90;;;;;;5133027;27;20046;-69
2021/12/23 02:07:19;;;;;;;57.05;25.10;;;-4.60;99.90;;;;;;5132436;27;20487;-72
2021/12/23 02:09:45;;;;;;;66.93;27.65;;;-4.40;99.90;;;;;;5133084;27;20477;-69
2021/12/23 02:12:11;;;;;;;59.85;26.60;;;-4.30;99.90;;;;;;5132650;27;20114;-69
2021/12/23 02:14:37;;;;;;;56.85;24.33;;;-4.10;99.90;;;;;;5132169;27;20023;-69
2021/12/23 02:17:03;;;;;;;58.20;25.33;;;-4.10;99.90;;;;;;5132589;27;20050;-69
2021/12/23 02:19:31;;;;;;;56.17;25.30;;;-3.90;99.90;;;;;;5131873;27;20091;-69
2021/12/23 02:21:56;;;;;;;57.03;24.48;;;-3.90;99.90;;;;;;5132222;27;20043;-69
2021/12/23 02:24:22;;;;;;;54.60;23.58;;;-3.90;99.90;;;;;;5132120;27;20039;-70
2021/12/23 02:26:48;;;;;;;56.08;24.17;;;-3.90;99.90;;;;;;5132873;27;20032;-69
2021/12/23 02:29:13;;;;;;;58.35;25.15;;;-3.80;99.90;;;;;;5132442;27;20146;-69
2021/12/23 02:31:39;;;;;;;57.15;25.42;;;-3.80;99.90;;;;;;5131210;27;20079;-69
2021/12/23 02:34:05;;;;;;;58.17;26.67;;;-3.90;99.90;;;;;;5131255;27;20023;-68
2021/12/23 02:36:31;;;;;;;58.88;25.48;;;-3.90;99.90;;;;;;5131261;28;20085;-69
2021/12/23 02:38:58;;;;;;;57.47;25.63;;;-4.00;99.90;;;;;;5132096;28;20475;-69
2021/12/23 02:41:24;;;;;;;60.47;27.67;;;-4.10;99.90;;;;;;5129600;28;20452;-69
2021/12/23 02:43:49;;;;;;;57.22;26.48;;;-4.10;99.90;;;;;;5131930;28;20026;-69
2021/12/23 02:46:18;;;;;;;55.50;25.48;;;-4.30;99.90;;;;;;5131075;27;20394;-70
2021/12/23 02:48:44;;;;;;;60.05;26.60;;;-4.30;99.90;;;;;;5131125;28;20062;-69
2021/12/23 02:51:11;;;;;;;65.68;27.95;;;-4.40;99.90;;;;;;5131593;28;20023;-69
2021/12/23 02:53:39;;;;;;;60.97;27.33;;;-4.40;99.90;;;;;;5130948;27;20118;-69
2021/12/23 02:56:07;;;;;;;56.10;26.60;;;-4.40;99.90;;;;;;5132018;28;20031;-68
2021/12/23 02:58:33;;;;;;;59.42;28.00;;;-4.40;99.90;;;;;;5130192;28;20456;-69
2021/12/23 03:01:01;;;;;;;58.30;27.17;;;-4.50;99.90;;;;;;5131407;28;20028;-69
2021/12/23 03:03:27;;;;;;;61.25;26.70;;;-4.60;99.90;;;;;;5130808;27;20246;-68
2021/12/23 03:05:58;;;;;;;55.28;26.80;;;-4.70;99.90;;;;;;5131170;28;20494;-68
2021/12/23 03:08:36;;;;;;;61.72;27.85;;;-4.80;99.90;;;;;;5130607;28;20027;-68
2021/12/23 03:11:04;;;;;;;57.78;25.95;;;-4.80;99.90;;;;;;5131582;27;20027;-67
2021/12/23 03:13:30;;;;;;;60.78;27.55;;;-4.90;99.90;;;;;;5130707;27;20031;-69
2021/12/23 03:15:56;;;;;;;63.85;27.05;;;-4.90;99.90;;;;;;5131423;28;20039;-69
2021/12/23 03:18:22;;;;;;;62.00;27.48;;;-4.90;99.90;;;;;;5130796;28;20027;-72
2021/12/23 03:20:47;;;;;;;59.40;26.25;;;-4.90;99.90;;;;;;5131221;28;20034;-68
2021/12/23 03:23:13;;;;;;;59.28;27.70;;;-4.80;99.90;;;;;;5131609;28;20027;-69
2021/12/23 03:25:39;;;;;;;69.65;29.27;;;-4.80;99.90;;;;;;5130851;28;20092;-69
2021/12/23 03:28:04;;;;;;;65.50;27.20;;;-4.80;99.90;;;;;;5131646;28;20376;-69
2021/12/23 03:30:30;;;;;;;64.93;27.88;;;-4.80;99.90;;;;;;5130489;28;20119;-69
2021/12/23 03:32:56;;;;;;;62.88;28.17;;;-4.90;99.90;;;;;;5131905;28;20076;-69
2021/12/23 03:35:22;;;;;;;58.55;27.05;;;-4.90;99.90;;;;;;5130769;28;20027;-72
2021/12/23 03:37:47;;;;;;;59.13;26.08;;;-4.80;99.90;;;;;;5131124;28;20425;-69
2021/12/23 03:40:13;;;;;;;60.35;27.75;;;-4.80;99.90;;;;;;5130700;28;20035;-69
2021/12/23 03:42:39;;;;;;;61.22;27.27;;;-4.80;99.90;;;;;;5130316;28;20031;-69
2021/12/23 03:45:07;;;;;;;63.88;25.67;;;-4.90;99.90;;;;;;5133923;27;20019;-68
2021/12/23 03:47:35;;;;;;;62.47;27.50;;;-4.90;99.90;;;;;;5133916;27;20055;-68
2021/12/23 03:50:00;;;;;;;60.38;26.33;;;-5.00;99.90;;;;;;5134729;27;20037;-67
2021/12/23 03:52:26;;;;;;;62.22;27.08;;;-5.00;99.90;;;;;;5133854;27;20102;-68
2021/12/23 03:54:52;;;;;;;60.38;25.85;;;-5.00;99.90;;;;;;5134997;27;20024;-67
2021/12/23 03:57:17;;;;;;;57.90;25.63;;;-5.00;99.90;;;;;;5134908;27;20031;-67
2021/12/23 03:59:43;;;;;;;62.45;26.63;;;-5.10;99.90;;;;;;5133574;27;20494;-67
2021/12/23 04:02:09;;;;;;;58.53;26.58;;;-5.10;99.90;;;;;;5134575;27;20033;-67
2021/12/23 04:04:35;;;;;;;61.40;28.98;;;-5.10;99.90;;;;;;5133625;27;20117;-68
2021/12/23 04:07:00;;;;;;;59.47;26.90;;;-5.10;99.90;;;;;;5134410;27;20032;-67
2021/12/23 04:09:26;;;;;;;60.08;25.58;;;-5.10;99.90;;;;;;5133790;27;20156;-67
2021/12/23 04:11:51;;;;;;;61.33;26.42;;;-5.00;99.90;;;;;;5134467;27;20106;-67
2021/12/23 04:14:17;;;;;;;53.78;25.10;;;-4.80;99.90;;;;;;5134472;27;20058;-67
2021/12/23 04:16:43;;;;;;;52.13;24.15;;;-4.80;99.90;;;;;;5133591;27;20051;-68
2021/12/23 04:19:10;;;;;;;56.65;24.58;;;-4.70;99.90;;;;;;5134378;27;20024;-68
2021/12/23 04:21:37;;;;;;;58.42;25.15;;;-4.70;99.90;;;;;;5133078;27;20023;-68
2021/12/23 04:24:03;;;;;;;55.22;25.00;;;-4.70;99.90;;;;;;5134364;27;20035;-67
2021/12/23 04:26:29;;;;;;;60.67;25.75;;;-4.80;99.90;;;;;;5133377;27;20050;-69
2021/12/23 04:28:55;;;;;;;53.78;25.10;;;-4.80;99.90;;;;;;5134118;27;20054;-67
2021/12/23 04:31:22;;;;;;;54.53;24.92;;;-4.80;99.90;;;;;;5133975;27;20110;-71
2021/12/23 04:33:51;;;;;;;56.63;26.00;;;-4.80;99.90;;;;;;5134162;27;20027;-67
2021/12/23 04:36:18;;;;;;;60.65;27.75;;;-4.80;99.90;;;;;;5133936;27;20095;-68
2021/12/23 04:38:45;;;;;;;58.30;25.38;;;-4.80;99.90;;;;;;5133313;27;20088;-68
2021/12/23 04:41:12;;;;;;;62.65;26.50;;;-4.80;99.90;;;;;;5133951;27;20031;-68
2021/12/23 04:43:38;;;;;;;60.40;26.77;;;-4.70;99.90;;;;;;5133420;27;20341;-69
2021/12/23 04:46:04;;;;;;;61.25;26.88;;;-4.70;99.90;;;;;;5133871;27;20059;-68
2021/12/23 04:48:31;;;;;;;55.35;25.38;;;-4.60;99.90;;;;;;5132304;27;20134;-68
2021/12/23 04:50:57;;;;;;;54.42;25.33;;;-4.50;99.90;;;;;;5133385;27;20046;-68
2021/12/23 04:53:23;;;;;;;49.63;23.73;;;-4.60;99.90;;;;;;5133047;27;20158;-72
2021/12/23 04:55:49;;;;;;;50.17;25.15;;;-4.60;99.90;;;;;;5132572;27;20044;-68
2021/12/23 04:58:15;;;;;;;50.35;23.48;;;-4.60;99.90;;;;;;5133820;27;20076;-67
2021/12/23 05:00:42;;;;;;;56.25;25.58;;;-4.60;99.90;;;;;;5132453;27;20615;-69
2021/12/23 05:03:08;;;;;;;59.90;25.52;;;-4.60;99.90;;;;;;5133571;27;20038;-68
2021/12/23 05:05:34;;;;;;;64.43;27.52;;;-4.60;99.90;;;;;;5132609;27;20026;-68
2021/12/23 05:08:00;;;;;;;69.03;27.15;;;-4.60;99.90;;;;;;5133814;27;20053;-67
2021/12/23 05:10:26;;;;;;;61.45;24.67;;;-4.60;99.90;;;;;;5132650;27;20047;-70
2021/12/23 05:12:51;;;;;;;66.60;26.92;;;-4.50;99.90;;;;;;5133514;27;20111;-69
2021/12/23 05:15:20;;;;;;;58.97;25.10;;;-4.30;99.90;;;;;;5133328;27;20046;-69
2021/12/23 05:17:47;;;;;;;54.72;24.13;;;-4.30;99.90;;;;;;5132905;27;20039;-68
2021/12/23 05:20:15;;;;;;;53.15;24.25;;;-4.30;99.90;;;;;;5133165;27;20031;-68
2021/12/23 05:22:41;;;;;;;55.38;25.05;;;-4.30;99.90;;;;;;5132227;27;20031;-69
2021/12/23 05:25:08;;;;;;;53.70;23.30;;;-4.40;99.90;;;;;;5133231;27;20035;-68
2021/12/23 05:27:34;;;;;;;50.45;23.13;;;-4.50;99.90;;;;;;5132349;27;20087;-68
2021/12/23 05:30:01;;;;;;;56.90;23.42;;;-4.60;99.90;;;;;;5132946;27;20019;-68
2021/12/23 05:32:27;;;;;;;52.42;25.10;;;-4.70;99.90;;;;;;5132077;27;20441;-69
2021/12/23 05:34:53;;;;;;;56.80;26.30;;;-4.80;99.90;;;;;;5132908;27;20091;-68
2021/12/23 05:37:18;;;;;;;57.97;25.38;;;-4.80;99.90;;;;;;5133076;27;20042;-68
2021/12/23 05:39:44;;;;;;;54.17;23.73;;;-4.70;99.90;;;;;;5131555;27;20015;-68
2021/12/23 05:42:10;;;;;;;55.05;24.55;;;-4.80;99.90;;;;;;5132809;27;20028;-68
2021/12/23 05:44:35;;;;;;;55.95;25.85;;;-4.90;99.90;;;;;;5131505;27;20019;-69
2021/12/23 05:47:01;;;;;;;62.47;26.75;;;-5.00;99.90;;;;;;5132289;27;20075;-69
2021/12/23 05:49:27;;;;;;;56.33;23.95;;;-5.00;99.90;;;;;;5113388;27;20039;-69
2021/12/23 05:51:52;;;;;;;60.25;23.95;;;-5.00;99.90;;;;;;5132565;27;20019;-68
2021/12/23 05:54:18;;;;;;;57.13;25.08;;;-5.00;99.90;;;;;;5132965;27;20023;-68
2021/12/23 05:56:44;;;;;;;56.75;23.35;;;-4.90;99.90;;;;;;5131568;27;20448;-69
2021/12/23 05:59:09;;;;;;;52.22;22.52;;;-4.90;99.90;;;;;;5132627;27;20033;-69
2021/12/23 06:01:35;;;;;;;55.67;23.83;;;-4.90;99.90;;;;;;5131452;27;20101;-68
2021/12/23 06:04:01;;;;;;;55.53;24.52;;;-4.80;99.90;;;;;;5132464;27;20023;-68
2021/12/23 06:06:26;;;;;;;55.53;26.15;;;-4.80;99.90;;;;;;5130739;27;20114;-71
2021/12/23 06:08:52;;;;;;;54.97;23.80;;;-4.70;99.90;;;;;;5132089;27;20042;-68
2021/12/23 06:11:18;;;;;;;57.45;24.48;;;-4.70;99.90;;;;;;5132035;27;20031;-68
2021/12/23 06:13:43;;;;;;;53.05;24.45;;;-4.60;99.90;;;;;;5131464;27;20733;-69
2021/12/23 06:16:09;;;;;;;53.70;22.95;;;-4.60;99.90;;;;;;5113504;27;20118;-68
2021/12/23 06:18:35;;;;;;;57.78;23.40;;;-4.60;99.90;;;;;;5131038;27;20039;-68
2021/12/23 06:21:01;;;;;;;56.13;23.65;;;-4.70;99.90;;;;;;5131543;27;20439;-68
2021/12/23 06:23:27;;;;;;;57.45;25.20;;;-4.60;99.90;;;;;;5130775;27;20076;-73
2021/12/23 06:25:53;;;;;;;54.90;24.63;;;-4.60;99.90;;;;;;5129310;27;20510;-69
2021/12/23 06:28:19;;;;;;;51.63;23.73;;;-4.70;99.90;;;;;;5131521;27;20015;-70
2021/12/23 06:30:45;;;;;;;53.08;22.63;;;-4.70;99.90;;;;;;5130700;27;20019;-71
2021/12/23 06:33:12;;;;;;;57.58;25.08;;;-4.80;99.90;;;;;;5130935;27;20026;-70
2021/12/23 06:35:38;;;;;;;55.35;23.38;;;-4.90;99.90;;;;;;5130495;27;20076;-67
2021/12/23 06:38:10;;;;;;;57.05;24.00;;;-4.90;99.90;;;;;;5131444;28;20023;-68
2021/12/23 06:40:37;;;;;;;58.22;25.50;;;-4.90;99.90;;;;;;5130839;28;20038;-68
2021/12/23 06:43:03;;;;;;;57.58;24.45;;;-4.80;99.90;;;;;;5131778;27;20019;-69
2021/12/23 06:45:28;;;;;;;62.63;24.88;;;-4.70;99.90;;;;;;5130944;28;20083;-69
2021/12/23 06:47:54;;;;;;;50.80;23.80;;;-4.60;99.90;;;;;;5132326;28;20054;-68
2021/12/23 06:50:22;;;;;;;55.03;24.58;;;-4.50;99.90;;;;;;5131442;28;20081;-67
2021/12/23 06:52:48;;;;;;;57.40;24.73;;;-4.50;99.90;;;;;;5131411;28;20035;-67
2021/12/23 06:55:16;;;;;;;51.28;23.63;;;-4.40;99.90;;;;;;5131604;28;20027;-68
2021/12/23 06:57:43;;;;;;;52.45;23.92;;;-4.40;99.90;;;;;;5131354;27;20360;-68
2021/12/23 07:00:15;;;;;;;44.75;21.38;;;-4.30;99.90;;;;;;5132076;27;20027;-68
2021/12/23 07:02:42;;;;;;;56.75;23.90;;;-4.30;99.90;;;;;;5130936;27;20047;-68
2021/12/23 07:05:09;;;;;;;55.28;23.30;;;-4.20;99.90;;;;;;5131647;28;20088;-67
2021/12/23 07:07:51;;;;;;;56.95;23.67;;;-4.20;99.90;;;;;;5131013;28;20027;-68
2021/12/23 07:10:19;;;;;;;46.92;21.35;;;-4.30;99.90;;;;;;5131780;28;20118;-69
2021/12/23 07:12:44;;;;;;;53.05;23.85;;;-4.30;99.90;;;;;;5132338;28;20106;-69
2021/12/23 07:15:10;;;;;;;54.22;23.13;;;-4.30;99.90;;;;;;5131721;27;20123;-70
2021/12/23 07:17:37;;;;;;;54.72;23.67;;;-4.30;99.90;;;;;;5125765;28;20035;-72
2021/12/23 07:20:04;;;;;;;55.00;23.17;;;-4.30;99.90;;;;;;5134536;27;20111;-71
2021/12/23 07:22:30;;;;;;;55.70;25.60;;;-4.30;99.90;;;;;;5133784;27;20406;-73
2021/12/23 07:24:55;;;;;;;52.90;23.65;;;-4.30;99.90;;;;;;5134428;27;20033;-70
2021/12/23 07:27:22;;;;;;;57.00;25.83;;;-4.40;99.90;;;;;;5135499;27;20110;-71
2021/12/23 07:29:48;;;;;;;54.05;23.73;;;-4.40;99.90;;;;;;5134863;27;20019;-71
2021/12/23 07:32:14;;;;;;;55.33;24.85;;;-4.40;99.90;;;;;;5134989;27;20390;-76
2021/12/23 07:34:42;;;;;;;56.05;24.90;;;-4.40;99.90;;;;;;5128901;27;20030;-72
2021/12/23 07:37:09;;;;;;;46.50;21.63;;;-4.40;99.90;;;;;;5135695;27;20491;-72
2021/12/23 07:39:36;;;;;;;63.85;25.98;;;-4.40;99.90;;;;;;5135265;27;20070;-72
2021/12/23 07:42:02;;;;;;;60.17;25.40;;;-4.20;99.90;;;;;;5134848;27;20035;-71
2021/12/23 07:44:28;;;;;;;57.78;24.85;;;-4.00;99.90;;;;;;5134824;27;20478;-78
2021/12/23 07:46:54;;;;;;;57.65;25.77;;;-4.00;99.90;;;;;;5129795;27;20031;-76
2021/12/23 07:49:19;;;;;;;51.90;24.20;;;-4.00;99.90;;;;;;5098519;27;20492;-69
2021/12/23 07:51:45;;;;;;;56.90;25.17;;;-4.00;99.90;;;;;;5131211;27;20027;-69
2021/12/23 07:54:11;;;;;;;61.22;27.38;;;-4.00;99.90;;;;;;5135598;27;20108;-72
2021/12/23 07:56:37;;;;;;;58.85;26.42;;;-4.00;99.90;;;;;;5120331;27;20115;-70
2021/12/23 07:59:03;;;;;;;52.88;25.23;;;-4.00;99.90;;;;;;5134397;27;20088;-70
2021/12/23 08:01:28;;;;;;;57.08;26.25;;;-4.00;99.90;;;;;;5133242;27;20422;-74
2021/12/23 08:03:54;;;;;;;52.30;24.05;;;-4.00;99.90;;;;;;5132516;27;20098;-70
2021/12/23 08:06:20;;;;;;;54.60;24.13;;;-4.00;99.90;;;;;;5133000;27;20023;-71
2021/12/23 08:08:45;;;;;;;63.55;27.48;;;-4.00;99.90;;;;;;5130317;27;20088;-70
2021/12/23 08:11:11;;;;;;;59.97;25.98;;;-3.90;99.90;;;;;;5133624;27;20028;-68
2021/12/23 08:13:37;;;;;;;54.53;24.42;;;-3.80;99.90;;;;;;5133362;27;20031;-69
2021/12/23 08:16:04;;;;;;;61.33;26.17;;;-3.70;99.90;;;;;;5134586;27;20050;-69
2021/12/23 08:18:31;;;;;;;58.55;26.83;;;-3.60;99.90;;;;;;5133798;27;20055;-74
2021/12/23 08:20:57;;;;;;;55.50;25.20;;;-3.50;99.90;;;;;;5134161;27;20549;-69
2021/12/23 08:23:23;;;;;;;56.67;25.55;;;-3.40;99.90;;;;;;5134208;27;20420;-69
2021/12/23 08:25:49;;;;;;;52.08;25.70;;;-3.30;99.90;;;;;;5133460;27;20092;-69
2021/12/23 08:28:15;;;;;;;51.25;25.33;;;-3.20;99.90;;;;;;5134355;27;20061;-69
2021/12/23 08:30:41;;;;;;;56.92;28.42;;;-3.10;99.90;;;;;;5133639;27;20023;-70
2021/12/23 08:33:08;;;;;;;63.78;28.15;;;-2.90;99.90;;;;;;5133300;27;20038;-72
2021/12/23 08:35:34;;;;;;;59.65;27.52;;;-2.80;99.90;;;;;;5133361;27;20539;-68
2021/12/23 08:38:00;;;;;;;47.42;23.50;;;-2.70;99.90;;;;;;5134726;27;20061;-68
2021/12/23 08:40:27;;;;;;;53.10;25.80;;;-2.60;99.90;;;;;;5134071;27;20042;-69
2021/12/23 08:42:56;;;;;;;51.28;24.52;;;-2.30;99.90;;;;;;5132676;27;20031;-68
2021/12/23 08:45:24;;;;;;;51.80;24.08;;;-2.20;99.90;;;;;;5124447;27;20038;-68
2021/12/23 08:47:51;;;;;;;53.63;23.98;;;-2.20;99.90;;;;;;5133933;27;20043;-71
2021/12/23 08:50:18;;;;;;;50.83;24.25;;;-2.10;99.90;;;;;;5132571;27;20027;-68
2021/12/23 08:52:45;;;;;;;52.85;24.33;;;-2.00;99.90;;;;;;5135513;27;20019;-68
2021/12/23 08:55:12;;;;;;;58.00;24.35;;;-2.00;99.90;;;;;;5134716;27;20036;-71
2021/12/23 08:57:39;;;;;;;52.15;26.05;;;-2.00;99.90;;;;;;5136810;27;20111;-70
2021/12/23 09:00:09;;;;;;;56.72;27.63;;;-2.00;99.90;;;;;;5136609;27;20157;-70
2021/12/23 09:02:35;;;;;;;56.67;26.85;;;-2.00;99.90;;;;;;5141132;27;20388;-69
2021/12/23 09:05:01;;;;;;;56.13;26.42;;;-1.90;99.90;;;;;;5133064;27;20023;-69
2021/12/23 09:07:26;;;;;;;49.83;24.75;;;-1.80;99.90;;;;;;5133292;27;20035;-69
2021/12/23 09:09:52;;;;;;;56.70;27.30;;;-1.70;99.90;;;;;;5132812;27;20120;-69
2021/12/23 09:12:22;;;;;;;58.28;27.67;;;-1.40;99.90;;;;;;5133169;27;20031;-70
2021/12/23 09:14:48;;;;;;;59.90;27.33;;;-1.20;99.90;;;;;;5132807;27;20062;-69
2021/12/23 09:17:15;;;;;;;57.00;26.15;;;;;;;;;;5133103;27;20035;-70
2021/12/23 09:19:41;;;;;;;50.95;24.42;;;-0.80;99.90;;;;;;5132070;27;20372;-69
2021/12/23 09:22:08;;;;;;;53.78;25.45;;;-0.80;99.90;;;;;;5133609;27;20033;-69
2021/12/23 09:24:35;;;;;;;50.97;23.73;;;-0.80;99.90;;;;;;5132688;27;20027;-69
2021/12/23 09:27:15;;;;;;;53.75;24.63;;;-0.80;99.90;;;;;;5133117;27;20058;-69
2021/12/23 09:34:56;;;;;;;47.85;23.77;;;-0.80;99.90;;;;;;5132143;27;20038;-70
2021/12/23 09:37:24;;;;;;;47.38;22.55;;;-0.70;99.90;;;;;;5133024;27;20039;-69
2021/12/23 09:39:55;;;;;;;47.75;23.55;;;-0.60;99.90;;;;;;5132581;27;20028;-69
2021/12/23 09:42:30;;;;;;;50.97;24.33;;;-0.60;99.90;;;;;;5132656;27;20087;-70
2021/12/23 09:44:59;;;;;;;52.55;23.80;;;-0.40;99.90;;;;;;5117059;27;20027;-69
2021/12/23 09:47:30;;;;;;;48.22;24.92;;;-0.40;99.90;;;;;;5130187;27;20431;-70
2021/12/23 09:49:58;;;;;;;47.13;24.30;;;-0.20;99.90;;;;;;5132739;27;20086;-69
2021/12/23 09:52:26;;;;;;;48.70;22.95;;;-0.20;99.90;;;;;;5131113;27;20027;-70
2021/12/23 09:54:55;;;;;;;48.70;24.50;;;-0.20;99.90;;;;;;5132333;27;20137;-69
2021/12/23 09:57:21;;;;;;;48.22;24.48;;;-0.20;99.90;;;;;;5132824;27;20372;-69
2021/12/23 09:59:47;;;;;;;46.03;23.38;;;-0.20;99.90;;;;;;5131414;27;20030;-70
2021/12/23 10:02:13;;;;;;;59.78;26.70;;;-0.10;99.90;;;;;;5132182;27;20027;-69
2021/12/23 10:04:39;;;;;;;50.65;25.73;;;0.00;99.90;;;;;;5113158;27;20391;-69
2021/12/23 10:07:05;;;;;;;51.97;25.55;;;0.00;99.90;;;;;;5132358;27;20030;-69
2021/12/23 10:27:02;;;;;;;48.13;23.63;;;0.30;99.90;;;;;;5131443;27;20050;-69
2021/12/23 10:32:11;;;;;;;46.45;23.25;;;0.60;99.90;;;;;;5131383;27;20053;-69
2021/12/23 10:37:20;;;;;;;47.75;24.48;;;0.70;99.90;;;;;;5131784;27;20031;-70
2021/12/23 10:40:13;;;;;;;49.33;23.67;;;0.80;99.90;;;;;;5131366;27;20027;-69
2021/12/23 10:42:47;;;;;;;50.45;24.38;;;0.90;99.90;;;;;;5126536;28;20062;-69
2021/12/23 10:45:14;;;;;;;50.13;23.55;;;1.00;99.90;;;;;;5113663;28;20023;-69
2021/12/23 10:48:09;;;;;;;50.80;24.27;;;1.10;99.90;;;;;;5113023;28;20048;-69
2021/12/23 10:50:42;;;;;;;50.60;24.08;;;1.20;99.90;;;;;;5110617;28;20486;-70
2021/12/23 10:53:38;;;;;;;54.67;25.13;;;1.30;99.90;;;;;;5126307;27;20460;-70
2021/12/23 10:59:09;;;;;;;45.85;23.25;;;1.60;99.90;;;;;;5136180;27;20038;-69
2021/12/23 11:01:54;;;;;;;49.65;24.88;;;1.60;99.90;;;;;;5135455;27;20027;-69
2021/12/23 11:04:19;;;;;;;44.88;22.50;;;1.80;99.90;;;;;;5134746;27;20031;-69
2021/12/23 11:06:47;;;;;;;36.20;16.75;;;1.80;99.90;;;;;;5135363;27;20028;-68
2021/12/23 11:09:52;;;;;;;41.10;20.27;;;2.00;99.90;;;;;;5136234;27;20034;-70
2021/12/23 11:38:41;;;;;;;43.72;22.23;;;2.70;99.90;;;;;;5097977;27;20556;-69
2021/12/23 11:41:32;;;;;;;45.38;21.05;;;2.80;99.90;;;;;;5136411;27;20035;-67
2021/12/23 11:44:00;;;;;;;45.45;20.90;;;2.80;99.90;;;;;;5128652;27;20031;-73
2021/12/23 11:46:48;;;;;;;42.83;22.52;;;2.90;99.90;;;;;;5125149;27;20031;-72
2021/12/23 11:49:16;;;;;;;50.50;21.98;;;3.00;99.90;;;;;;5092098;28;20051;-76
2021/12/23 11:51:51;;;;;;;42.13;22.23;;;3.00;99.90;;;;;;5092057;28;20034;-76
2021/12/23 11:54:36;;;;;;;45.88;22.73;;;3.10;99.90;;;;;;5091674;28;20024;-75
2021/12/23 11:57:16;;;;;;;49.63;22.10;;;3.30;99.90;;;;;;5078048;28;20484;-76
2021/12/23 11:59:50;;;;;;;39.08;20.77;;;3.40;99.90;;;;;;5071097;28;20458;-73
2021/12/23 12:02:20;;;;;;;44.63;22.73;;;3.50;99.90;;;;;;5072587;28;20531;-71
2021/12/23 12:04:49;;;;;;;46.55;22.90;;;3.50;99.90;;;;;;5076066;28;20161;-68
2021/12/23 12:07:23;;;;;;;43.80;23.15;;;3.50;99.90;;;;;;5095524;28;20028;-72
2021/12/23 12:10:03;;;;;;;39.88;22.38;;;3.60;99.90;;;;;;5092446;28;20062;-72
2021/12/23 12:12:31;;;;;;;45.38;22.15;;;3.70;99.90;;;;;;5091588;28;20119;-76
2021/12/23 12:14:58;;;;;;;48.25;23.23;;;3.70;99.90;;;;;;5093000;28;20103;-73
2021/12/23 12:17:24;;;;;;;43.15;21.90;;;3.60;99.90;;;;;;5074247;28;20040;-76
2021/12/23 12:20:21;;;;;;;46.20;24.52;;;3.60;99.90;;;;;;5085131;28;20035;-71
2021/12/23 12:23:00;;;;;;;40.65;21.67;;;3.70;99.90;;;;;;5092183;28;20493;-72
2021/12/23 12:25:25;;;;;;;43.35;23.02;;;3.60;99.90;;;;;;5092492;28;20392;-70
2021/12/23 12:27:57;;;;;;;48.70;23.83;;;3.60;99.90;;;;;;5091901;28;20028;-70
2021/12/23 12:30:56;;;;;;;42.83;22.50;;;3.70;99.90;;;;;;5074206;28;20073;-72
2021/12/23 12:33:25;;;;;;;46.63;23.10;;;3.70;99.90;;;;;;5074741;28;20059;-71
2021/12/23 12:35:57;;;;;;;42.20;23.40;;;3.70;99.90;;;;;;5091208;28;20168;-71
2021/12/23 12:38:26;;;;;;;39.83;22.67;;;3.60;99.90;;;;;;5090486;28;20465;-72
2021/12/23 12:41:17;;;;;;;45.78;23.15;;;3.60;99.90;;;;;;5071005;28;20173;-74
2021/12/23 12:43:49;;;;;;;42.42;22.08;;;3.60;99.90;;;;;;5070751;28;20036;-71
2021/12/23 12:46:30;;;;;;;47.22;22.27;;;3.50;99.90;;;;;;5072567;28;20036;-72
2021/12/23 12:48:59;;;;;;;49.80;23.52;;;3.50;99.90;;;;;;5073973;27;1133555;-72
2021/12/23 12:51:36;;;;;;;42.92;23.38;;;3.50;99.90;;;;;;5133195;27;20031;-72
2021/12/23 12:54:08;;;;;;;45.00;22.20;;;3.50;99.90;;;;;;5133356;27;20497;-71
2021/12/23 12:56:47;;;;;;;44.08;22.98;;;3.50;99.90;;;;;;5116617;27;20113;-76
2021/12/23 12:59:14;;;;;;;45.83;23.50;;;3.50;99.90;;;;;;5120564;27;20031;-72
2021/12/23 13:01:49;;;;;;;46.78;23.67;;;3.60;99.90;;;;;;5132301;27;20288;-72
2021/12/23 13:04:32;;;;;;;50.55;23.73;;;3.60;99.90;;;;;;5132144;27;20023;-71
2021/12/23 13:07:12;;;;;;;43.33;23.65;;;3.60;99.90;;;;;;5132688;27;20042;-73
2021/12/23 13:10:02;;;;;;;45.67;23.58;;;3.60;99.90;;;;;;5133121;27;20061;-72
2021/12/23 13:12:44;;;;;;;48.03;24.13;;;3.70;99.90;;;;;;5113269;28;20036;-72
2021/12/23 13:15:17;;;;;;;47.03;24.02;;;3.70;99.90;;;;;;5129779;27;20088;-72
2021/12/23 13:17:56;;;;;;;55.30;25.52;;;3.80;99.90;;;;;;5131185;27;20126;-71
2021/12/23 13:20:33;;;;;;;44.10;21.75;;;3.90;99.90;;;;;;5132540;27;20054;-73
2021/12/23 13:23:02;;;;;;;20.88;10.18;;;3.90;99.90;;;;;;5132353;27;20079;-71
2021/12/23 13:25:28;;;;;;;12.27;7.63;;;4.10;99.90;;;;;;5132332;27;20033;-74
2021/12/23 13:27:54;;;;;;;17.67;8.57;;;4.30;99.90;;;;;;5132120;27;20031;-71
2021/12/23 13:30:20;;;;;;;23.13;10.30;;;4.60;99.90;;;;;;5132905;27;20030;-71
2021/12/23 13:33:01;;;;;;;45.88;20.02;;;;;;;;;;5130731;27;20023;-71
2021/12/23 13:35:28;;;;;;;45.97;22.60;;;;;;;;;;5131647;27;20348;-71
2021/12/23 13:37:54;;;;;;;46.03;21.92;;;;;;;;;;5131877;27;20035;-70
2021/12/23 13:40:28;;;;;;;43.35;21.75;;;;;;;;;;5132647;27;20038;-71